Time;durP1;ratioP1;P1;durP2;ratioP2;P2;SDS_P1;SDS_P2;PMS_P1;PMS_P2;Temp;Humidity;BMP_temperature;BMP_pressure;BME280_temperature;BME280_humidity;BME280_pressure;Samples;Min_cycle;Max_cycle;Signal;HPM_P1;HPM_P2
2023/03/01 00:01:08;;;;;;;4.18;2.40;;;10.90;86.70;;;;;;6305105;22;20023;-73
2023/03/01 00:03:35;;;;;;;4.50;2.40;;;11.00;86.60;;;;;;6308269;22;20071;-74
2023/03/01 00:06:01;;;;;;;5.30;2.67;;;11.00;86.60;;;;;;6307779;22;20448;-74
2023/03/01 00:08:28;;;;;;;4.10;2.40;;;10.90;86.70;;;;;;6308040;22;20003;-73
2023/03/01 00:11:04;;;;;;;4.07;2.40;;;10.80;87.00;;;;;;6308388;22;20015;-75
2023/03/01 00:13:31;;;;;;;3.35;2.05;;;10.70;86.80;;;;;;6308298;22;20021;-75
2023/03/01 00:15:56;;;;;;;5.35;2.88;;;10.70;87.50;;;;;;6308159;22;20003;-75
2023/03/01 00:18:22;;;;;;;4.20;2.42;;;10.80;87.20;;;;;;6280496;22;20018;-74
2023/03/01 00:20:53;;;;;;;6.07;3.03;;;10.80;87.40;;;;;;6308434;22;20003;-74
2023/03/01 00:23:20;;;;;;;6.05;3.20;;;10.90;87.50;;;;;;6308096;22;20003;-74
2023/03/01 00:25:46;;;;;;;6.72;3.10;;;10.80;87.40;;;;;;6307474;22;19999;-74
2023/03/01 00:28:11;;;;;;;6.22;3.80;;;10.90;87.60;;;;;;6307935;22;20417;-75
2023/03/01 00:30:37;;;;;;;7.25;4.30;;;10.90;87.80;;;;;;6308014;22;20086;-73
2023/03/01 00:33:03;;;;;;;5.78;3.67;;;10.90;88.70;;;;;;6280495;22;19999;-73
2023/03/01 00:35:29;;;;;;;6.32;4.47;;;10.90;88.20;;;;;;6307921;22;20014;-74
2023/03/01 00:37:57;;;;;;;7.38;4.60;;;11.00;88.30;;;;;;6307598;22;20428;-74
2023/03/01 00:40:27;;;;;;;6.53;4.47;;;11.00;88.20;;;;;;6307662;22;20481;-74
2023/03/01 00:42:53;;;;;;;9.98;5.30;;;11.00;88.40;;;;;;6280236;22;20322;-73
2023/03/01 00:45:19;;;;;;;7.90;5.22;;;10.90;88.30;;;;;;6279819;22;20007;-75
2023/03/01 00:47:45;;;;;;;8.70;5.30;;;10.90;88.40;;;;;;6307544;22;20391;-75
2023/03/01 00:50:11;;;;;;;7.88;5.20;;;10.90;88.70;;;;;;6307811;22;20006;-74
2023/03/01 00:52:37;;;;;;;9.40;4.90;;;10.90;88.70;;;;;;6307816;22;20364;-75
2023/03/01 00:55:04;;;;;;;5.97;4.35;;;11.00;88.80;;;;;;6307854;22;19999;-74
2023/03/01 00:57:29;;;;;;;7.40;5.05;;;10.90;88.60;;;;;;6307726;22;20017;-74
2023/03/01 00:59:55;;;;;;;6.93;4.50;;;10.80;88.90;;;;;;6306839;22;20074;-74
2023/03/01 01:02:21;;;;;;;7.35;5.32;;;10.80;89.10;;;;;;6307494;22;20027;-73
2023/03/01 01:04:47;;;;;;;7.80;4.65;;;10.80;89.40;;;;;;6307809;22;20090;-74
2023/03/01 01:07:14;;;;;;;9.18;4.75;;;10.80;89.20;;;;;;6307189;22;19999;-74
2023/03/01 01:09:40;;;;;;;7.75;4.78;;;10.90;89.30;;;;;;6280383;22;20011;-74
2023/03/01 01:12:06;;;;;;;7.45;4.85;;;10.90;89.40;;;;;;6307414;22;19999;-74
2023/03/01 01:14:32;;;;;;;7.72;4.25;;;10.90;89.20;;;;;;6307476;22;19995;-74
2023/03/01 01:16:58;;;;;;;5.82;4.15;;;10.90;89.00;;;;;;6307477;22;20090;-74
2023/03/01 01:19:24;;;;;;;7.85;4.30;;;10.90;89.50;;;;;;6307702;22;20003;-75
2023/03/01 01:21:50;;;;;;;7.82;4.30;;;11.00;89.50;;;;;;6307334;22;20007;-74
2023/03/01 01:24:16;;;;;;;8.13;4.18;;;11.00;89.50;;;;;;6306944;22;20019;-75
2023/03/01 01:26:42;;;;;;;6.63;4.40;;;11.00;89.60;;;;;;6307336;22;19999;-75
2023/03/01 01:29:08;;;;;;;6.22;4.28;;;11.00;89.40;;;;;;6307143;22;20483;-74
2023/03/01 01:31:36;;;;;;;7.18;4.43;;;11.00;89.70;;;;;;6280216;22;20007;-75
2023/03/01 01:34:04;;;;;;;6.13;4.20;;;11.00;89.60;;;;;;6306976;22;19995;-75
2023/03/01 01:36:31;;;;;;;6.45;4.35;;;11.00;89.70;;;;;;6279193;22;20007;-75
2023/03/01 01:38:57;;;;;;;5.47;3.80;;;11.00;89.60;;;;;;6279260;22;20004;-75
2023/03/01 01:41:24;;;;;;;5.45;3.55;;;11.00;89.40;;;;;;6307023;22;20217;-74
2023/03/01 01:44:10;;;;;;;6.15;3.83;;;11.00;89.40;;;;;;6306755;22;20010;-74
2023/03/01 01:46:38;;;;;;;6.40;4.30;;;11.00;89.30;;;;;;6306322;22;19996;-74
2023/03/01 01:49:31;;;;;;;5.43;3.28;;;11.00;89.40;;;;;;6306563;22;20441;-74
2023/03/01 01:52:03;;;;;;;6.80;4.13;;;11.10;89.30;;;;;;6306743;22;20367;-73
2023/03/01 01:54:36;;;;;;;8.00;4.40;;;11.10;89.40;;;;;;6305162;22;20003;-76
2023/03/01 01:57:06;;;;;;;6.07;4.00;;;11.10;89.20;;;;;;6307074;22;20086;-75
2023/03/01 01:59:33;;;;;;;5.50;3.75;;;11.10;89.40;;;;;;6306601;22;20018;-74
2023/03/01 02:02:02;;;;;;;5.93;4.18;;;11.10;89.20;;;;;;6306574;22;20365;-75
2023/03/01 02:04:29;;;;;;;6.82;4.40;;;11.10;89.30;;;;;;6279243;22;20003;-74
2023/03/01 02:07:07;;;;;;;6.75;4.30;;;11.10;89.40;;;;;;6307033;22;20060;-74
2023/03/01 02:09:34;;;;;;;7.50;4.78;;;11.10;89.00;;;;;;6307151;22;19996;-75
2023/03/01 02:12:01;;;;;;;6.90;4.72;;;11.10;89.50;;;;;;6307322;22;20007;-75
2023/03/01 02:14:26;;;;;;;7.47;4.20;;;11.10;89.40;;;;;;6307436;22;19999;-74
2023/03/01 02:16:52;;;;;;;6.07;3.88;;;11.00;89.40;;;;;;6306859;22;20333;-74
2023/03/01 02:19:47;;;;;;;6.40;3.78;;;11.00;89.70;;;;;;6306933;22;20313;-74
2023/03/01 02:22:19;;;;;;;5.80;3.80;;;11.00;89.80;;;;;;6285370;22;20448;-75
2023/03/01 02:25:21;;;;;;;7.60;3.50;;;10.90;89.70;;;;;;6306976;22;20355;-74
2023/03/01 02:28:05;;;;;;;6.25;3.38;;;10.90;90.10;;;;;;6285302;22;20383;-74
2023/03/01 02:30:32;;;;;;;5.63;3.42;;;10.90;89.80;;;;;;6306708;22;20070;-74
2023/03/01 02:33:04;;;;;;;4.43;2.35;;;10.90;90.10;;;;;;6305464;22;20070;-74
2023/03/01 02:35:37;;;;;;;2.80;1.83;;;10.80;90.00;;;;;;6307006;22;20003;-75
2023/03/01 02:38:06;;;;;;;3.53;1.85;;;10.70;90.10;;;;;;6305714;22;20011;-75
2023/03/01 02:40:34;;;;;;;3.35;1.95;;;10.70;90.10;;;;;;6305680;22;20393;-74
2023/03/01 02:42:59;;;;;;;2.90;1.60;;;10.60;90.30;;;;;;6305642;22;20405;-74
2023/03/01 02:45:26;;;;;;;2.45;1.55;;;10.60;90.10;;;;;;6305535;22;20121;-74
2023/03/01 02:47:57;;;;;;;3.17;1.40;;;10.50;90.30;;;;;;6306108;22;20003;-74
2023/03/01 02:50:51;;;;;;;3.72;1.42;;;10.50;90.30;;;;;;6306172;22;20488;-75
2023/03/01 02:53:27;;;;;;;3.00;1.42;;;10.50;90.30;;;;;;6292161;22;20088;-75
2023/03/01 02:55:53;;;;;;;2.33;1.25;;;10.50;90.30;;;;;;6306363;22;20416;-74
2023/03/01 02:58:19;;;;;;;3.38;1.60;;;10.50;90.20;;;;;;6305720;22;20007;-75
2023/03/01 03:00:46;;;;;;;3.67;1.70;;;10.50;90.30;;;;;;6305207;22;20472;-74
2023/03/01 03:03:16;;;;;;;3.08;1.38;;;10.60;90.20;;;;;;6305633;22;19999;-74
2023/03/01 03:05:43;;;;;;;3.70;1.50;;;10.50;90.20;;;;;;6305194;22;20007;-74
2023/03/01 03:08:09;;;;;;;3.33;1.60;;;10.50;90.10;;;;;;6305458;22;20140;-74
2023/03/01 03:10:37;;;;;;;3.15;1.70;;;10.50;90.00;;;;;;6305257;22;19999;-73
2023/03/01 03:13:06;;;;;;;3.78;2.00;;;10.50;90.10;;;;;;6305864;22;19999;-74
2023/03/01 03:15:35;;;;;;;3.30;1.60;;;10.60;90.10;;;;;;6278342;22;20015;-75
2023/03/01 03:18:03;;;;;;;2.92;1.58;;;10.60;90.20;;;;;;6306239;22;20011;-74
2023/03/01 03:20:29;;;;;;;3.50;1.75;;;10.60;90.00;;;;;;6306342;22;20000;-76
2023/03/01 03:22:56;;;;;;;3.70;1.67;;;10.60;89.90;;;;;;6306415;22;20450;-75
2023/03/01 03:25:22;;;;;;;2.70;1.48;;;10.60;90.00;;;;;;6306473;22;20070;-74
2023/03/01 03:27:49;;;;;;;3.72;1.80;;;10.60;90.00;;;;;;6305894;22;20006;-73
2023/03/01 03:30:18;;;;;;;3.42;1.70;;;10.60;90.00;;;;;;6305824;22;20004;-75
2023/03/01 03:32:55;;;;;;;3.17;1.83;;;10.60;90.00;;;;;;6306673;22;20009;-74
2023/03/01 03:35:24;;;;;;;3.30;1.83;;;10.60;89.90;;;;;;6306264;22;19999;-74
2023/03/01 03:38:05;;;;;;;3.28;1.63;;;10.50;89.60;;;;;;6305969;22;20011;-75
2023/03/01 03:40:38;;;;;;;2.38;1.67;;;10.60;89.80;;;;;;6305912;22;19995;-75
2023/03/01 03:43:09;;;;;;;4.37;1.67;;;10.50;89.60;;;;;;6306158;22;20045;-75
2023/03/01 03:45:35;;;;;;;3.13;1.45;;;10.60;89.30;;;;;;6306355;22;20347;-75
2023/03/01 03:48:03;;;;;;;4.70;1.50;;;10.50;89.10;;;;;;6306174;22;20436;-75
2023/03/01 03:50:29;;;;;;;2.75;1.50;;;10.50;89.10;;;;;;6278629;22;20007;-74
2023/03/01 03:52:54;;;;;;;3.20;1.65;;;10.60;89.00;;;;;;6306084;22;20437;-75
2023/03/01 03:55:20;;;;;;;4.45;1.50;;;10.60;88.50;;;;;;6306143;22;20025;-74
2023/03/01 03:57:54;;;;;;;2.85;1.30;;;10.60;88.20;;;;;;6305743;22;20007;-74
2023/03/01 04:00:23;;;;;;;2.10;1.20;;;10.70;87.90;;;;;;6305956;22;20018;-75
2023/03/01 04:02:50;;;;;;;2.47;1.42;;;10.70;87.30;;;;;;6306140;22;20033;-74
2023/03/01 04:05:18;;;;;;;1.60;1.33;;;10.80;87.40;;;;;;6278575;22;20052;-75
2023/03/01 04:07:45;;;;;;;2.20;1.50;;;10.80;87.20;;;;;;6306154;22;19999;-74
2023/03/01 04:10:14;;;;;;;1.27;1.08;;;10.80;87.20;;;;;;6306150;22;20329;-74
2023/03/01 04:12:40;;;;;;;2.92;1.40;;;10.80;86.70;;;;;;6305706;22;20007;-74
2023/03/01 04:15:13;;;;;;;3.55;1.30;;;10.80;86.70;;;;;;6305668;22;19999;-74
2023/03/01 04:17:44;;;;;;;2.28;1.35;;;10.80;86.30;;;;;;6277956;22;20021;-74
2023/03/01 04:20:24;;;;;;;2.25;1.27;;;10.80;86.60;;;;;;6305861;22;20022;-74
2023/03/01 04:22:51;;;;;;;2.05;1.30;;;10.80;86.50;;;;;;6278596;22;20011;-74
2023/03/01 04:25:17;;;;;;;1.80;1.10;;;10.80;86.50;;;;;;6306029;22;20002;-74
2023/03/01 04:27:43;;;;;;;2.75;1.30;;;10.80;86.30;;;;;;6305791;22;20004;-74
2023/03/01 04:30:10;;;;;;;2.45;1.20;;;10.80;86.10;;;;;;6305743;22;20041;-73
2023/03/01 04:32:36;;;;;;;2.08;0.90;;;10.70;86.10;;;;;;6305872;22;20003;-75
2023/03/01 04:35:01;;;;;;;2.55;1.08;;;10.70;86.10;;;;;;6278553;22;20031;-74
2023/03/01 04:37:27;;;;;;;5.20;1.45;;;10.70;86.10;;;;;;6278643;22;20011;-74
2023/03/01 04:39:53;;;;;;;2.78;1.38;;;10.70;86.10;;;;;;6278722;22;20445;-75
2023/03/01 04:42:19;;;;;;;1.95;0.90;;;10.70;85.20;;;;;;6307842;22;20137;-75
2023/03/01 04:44:45;;;;;;;3.08;0.90;;;10.70;85.10;;;;;;6308069;22;20034;-74
2023/03/01 04:47:11;;;;;;;1.00;0.80;;;10.70;84.70;;;;;;6308077;22;20010;-75
2023/03/01 04:49:37;;;;;;;1.17;0.80;;;10.70;84.50;;;;;;6307841;22;20003;-75
2023/03/01 04:52:04;;;;;;;0.75;0.60;;;10.70;84.40;;;;;;6308133;22;20080;-73
2023/03/01 04:54:31;;;;;;;0.95;0.60;;;10.60;84.10;;;;;;6307550;22;20069;-75
2023/03/01 04:56:58;;;;;;;1.67;0.80;;;10.60;83.90;;;;;;6307553;22;20007;-75
2023/03/01 04:59:24;;;;;;;2.67;0.82;;;10.60;83.90;;;;;;6307685;22;20006;-74
2023/03/01 05:01:51;;;;;;;1.88;0.80;;;10.50;83.80;;;;;;6307276;22;20019;-75
2023/03/01 05:04:17;;;;;;;3.55;0.85;;;10.50;83.50;;;;;;6307720;22;19999;-74
2023/03/01 05:06:42;;;;;;;2.83;1.00;;;10.50;83.60;;;;;;6307706;22;20003;-73
2023/03/01 05:09:08;;;;;;;1.92;0.88;;;10.50;83.60;;;;;;6307688;22;20004;-74
2023/03/01 05:11:35;;;;;;;3.30;0.93;;;10.50;83.50;;;;;;6307883;22;19999;-74
2023/03/01 05:14:06;;;;;;;1.83;0.90;;;10.50;83.80;;;;;;6307263;22;20037;-75
2023/03/01 05:16:31;;;;;;;2.13;0.90;;;10.50;83.80;;;;;;6307743;22;19995;-75
2023/03/01 05:18:58;;;;;;;1.65;0.80;;;10.50;83.50;;;;;;6307477;22;20016;-75
2023/03/01 05:21:24;;;;;;;2.50;0.75;;;10.50;83.30;;;;;;6307482;22;19999;-75
2023/03/01 05:23:50;;;;;;;2.17;0.80;;;10.50;83.20;;;;;;6307363;22;20037;-75
2023/03/01 05:26:21;;;;;;;1.48;0.80;;;10.50;83.30;;;;;;6307481;22;20372;-75
2023/03/01 05:28:47;;;;;;;1.85;1.00;;;10.50;82.80;;;;;;6307154;22;20053;-74
2023/03/01 05:31:13;;;;;;;1.05;0.90;;;10.40;82.70;;;;;;6280055;22;20007;-74
2023/03/01 05:33:40;;;;;;;2.63;1.23;;;10.40;82.20;;;;;;6307565;22;20076;-74
2023/03/01 05:36:09;;;;;;;4.95;1.02;;;10.40;82.20;;;;;;6307579;22;19999;-74
2023/03/01 05:38:35;;;;;;;3.10;1.13;;;10.40;82.10;;;;;;6307341;22;20011;-74
2023/03/01 05:41:01;;;;;;;1.42;1.00;;;10.40;81.80;;;;;;6307170;22;20003;-75
2023/03/01 05:43:31;;;;;;;1.35;0.90;;;10.50;81.40;;;;;;6307719;22;20003;-73
2023/03/01 05:45:57;;;;;;;4.43;1.08;;;10.50;81.10;;;;;;6306955;22;20429;-75
2023/03/01 05:48:23;;;;;;;4.03;0.90;;;10.50;80.90;;;;;;6279838;22;20031;-73
2023/03/01 05:50:49;;;;;;;3.00;1.00;;;10.50;80.90;;;;;;6307249;22;20022;-75
2023/03/01 05:53:20;;;;;;;3.60;1.05;;;10.40;81.10;;;;;;6306867;22;20011;-75
2023/03/01 05:55:47;;;;;;;2.15;0.95;;;10.40;81.40;;;;;;6306722;22;19999;-75
2023/03/01 05:58:18;;;;;;;3.22;1.42;;;10.50;82.30;;;;;;6279606;22;20149;-74
2023/03/01 06:00:47;;;;;;;3.17;1.10;;;10.50;81.60;;;;;;6307010;22;20018;-75
2023/03/01 06:03:14;;;;;;;2.22;1.00;;;10.40;81.10;;;;;;6307095;22;20362;-74
2023/03/01 06:05:40;;;;;;;3.25;1.15;;;10.40;81.30;;;;;;6306773;22;20000;-74
2023/03/01 06:08:07;;;;;;;1.25;0.90;;;10.40;80.80;;;;;;6306873;22;20413;-75
2023/03/01 06:10:32;;;;;;;4.10;1.23;;;10.50;80.80;;;;;;6279140;22;20007;-74
2023/03/01 06:12:58;;;;;;;2.53;1.20;;;10.50;80.30;;;;;;6306957;22;20100;-75
2023/03/01 06:15:25;;;;;;;1.45;0.90;;;10.60;80.40;;;;;;6307065;22;20003;-75
2023/03/01 06:17:51;;;;;;;1.60;0.90;;;10.60;80.10;;;;;;6279052;22;20475;-75
2023/03/01 06:20:22;;;;;;;2.80;1.30;;;10.60;79.70;;;;;;6279158;22;20003;-75
2023/03/01 06:22:51;;;;;;;4.25;1.20;;;10.60;79.50;;;;;;6306473;22;20003;-75
2023/03/01 06:25:20;;;;;;;1.50;0.90;;;10.60;79.50;;;;;;6306773;22;20002;-75
2023/03/01 06:27:47;;;;;;;2.10;1.08;;;10.70;79.90;;;;;;6306785;22;19999;-74
2023/03/01 06:30:14;;;;;;;5.50;1.40;;;10.70;79.60;;;;;;6306673;22;20452;-75
2023/03/01 06:32:44;;;;;;;3.38;1.20;;;10.80;79.90;;;;;;6279200;22;20389;-73
2023/03/01 06:35:12;;;;;;;4.03;1.35;;;10.80;79.60;;;;;;6306656;22;20007;-74
2023/03/01 06:37:38;;;;;;;2.75;1.38;;;10.90;79.80;;;;;;6306192;22;20069;-74
2023/03/01 06:40:08;;;;;;;4.85;1.80;;;11.00;79.70;;;;;;6306444;22;20010;-74
2023/03/01 06:42:42;;;;;;;3.35;1.60;;;11.10;79.50;;;;;;6306937;22;20113;-76
2023/03/01 06:45:09;;;;;;;3.55;1.58;;;11.20;79.10;;;;;;6306169;22;19995;-74
2023/03/01 06:47:35;;;;;;;2.95;1.20;;;11.30;79.00;;;;;;6306996;22;20006;-75
2023/03/01 06:50:02;;;;;;;3.28;1.20;;;11.30;78.30;;;;;;6307305;22;19999;-73
2023/03/01 06:52:28;;;;;;;2.65;1.15;;;11.20;78.60;;;;;;6306058;22;20031;-75
2023/03/01 06:54:53;;;;;;;3.10;1.23;;;11.30;78.30;;;;;;6306167;22;20022;-72
2023/03/01 06:57:19;;;;;;;3.42;1.45;;;11.20;78.10;;;;;;6306252;22;20015;-73
2023/03/01 06:59:46;;;;;;;3.30;1.60;;;11.20;78.30;;;;;;6306451;22;20005;-72
2023/03/01 07:02:13;;;;;;;3.80;1.30;;;11.20;78.30;;;;;;6306156;22;20092;-73
2023/03/01 07:04:41;;;;;;;5.20;1.52;;;11.20;78.30;;;;;;6278785;22;20047;-71
2023/03/01 07:07:07;;;;;;;2.72;1.33;;;11.20;78.90;;;;;;6306002;22;20030;-72
2023/03/01 07:09:33;;;;;;;3.28;1.30;;;11.20;78.80;;;;;;6306514;22;19999;-71
2023/03/01 07:11:58;;;;;;;3.08;1.48;;;11.20;78.50;;;;;;6306407;22;20070;-72
2023/03/01 07:14:25;;;;;;;3.70;1.50;;;11.30;78.80;;;;;;6278701;22;20003;-72
2023/03/01 07:16:52;;;;;;;3.83;1.67;;;11.40;78.50;;;;;;6305813;22;20003;-73
2023/03/01 07:19:17;;;;;;;3.88;1.63;;;11.60;78.30;;;;;;6278972;22;20463;-73
2023/03/01 07:21:43;;;;;;;2.15;1.25;;;11.70;77.80;;;;;;6306298;22;20023;-73
2023/03/01 07:24:10;;;;;;;3.13;1.38;;;11.70;76.90;;;;;;6306374;22;19999;-72
2023/03/01 07:26:36;;;;;;;3.03;1.15;;;11.80;77.20;;;;;;6306153;22;20003;-72
2023/03/01 07:29:03;;;;;;;4.70;2.00;;;11.80;77.10;;;;;;6306032;22;20397;-74
2023/03/01 07:31:28;;;;;;;4.00;1.50;;;11.80;77.30;;;;;;6306416;22;20004;-73
2023/03/01 07:33:57;;;;;;;4.65;1.88;;;11.80;77.50;;;;;;6306351;22;20000;-73
2023/03/01 07:36:23;;;;;;;3.20;1.52;;;11.90;77.70;;;;;;6307275;22;20003;-73
2023/03/01 07:38:50;;;;;;;3.92;1.63;;;11.90;77.30;;;;;;6306668;22;20107;-73
2023/03/01 07:41:16;;;;;;;4.55;1.75;;;11.90;77.50;;;;;;6306227;22;20051;-74
2023/03/01 07:43:42;;;;;;;2.92;1.60;;;12.00;77.10;;;;;;6306400;22;20075;-74
2023/03/01 07:46:08;;;;;;;4.10;2.10;;;12.00;77.00;;;;;;6306048;22;20389;-72
2023/03/01 07:48:34;;;;;;;5.40;1.92;;;12.00;76.70;;;;;;6305859;22;20004;-73
2023/03/01 07:51:01;;;;;;;2.75;1.50;;;12.00;76.90;;;;;;6305743;22;20370;-74
2023/03/01 07:53:27;;;;;;;4.32;1.98;;;11.90;76.50;;;;;;6306434;22;19995;-74
2023/03/01 07:56:09;;;;;;;3.80;1.90;;;11.90;76.40;;;;;;6278933;22;20057;-73
2023/03/01 07:58:36;;;;;;;4.28;1.90;;;11.90;77.60;;;;;;6306084;22;20057;-73
2023/03/01 08:01:04;;;;;;;5.28;2.38;;;12.00;76.60;;;;;;6305806;22;20453;-73
2023/03/01 08:03:29;;;;;;;7.47;2.33;;;12.10;76.40;;;;;;6306351;22;20003;-72
2023/03/01 08:05:55;;;;;;;5.55;2.20;;;12.30;76.50;;;;;;6306192;22;20376;-72
2023/03/01 08:08:21;;;;;;;5.75;1.80;;;12.30;76.10;;;;;;6306130;22;20094;-72
2023/03/01 08:10:47;;;;;;;5.38;1.95;;;12.30;75.90;;;;;;6278910;22;20418;-72
2023/03/01 08:13:12;;;;;;;4.00;1.77;;;12.30;76.00;;;;;;6306010;22;20195;-71
2023/03/01 08:15:38;;;;;;;3.70;1.70;;;12.30;76.30;;;;;;6306596;22;20053;-71
2023/03/01 08:18:04;;;;;;;3.72;1.77;;;12.30;76.10;;;;;;6308659;22;20080;-71
2023/03/01 08:20:29;;;;;;;5.38;1.73;;;12.30;75.80;;;;;;6308459;22;20071;-72
2023/03/01 08:22:58;;;;;;;3.83;1.90;;;12.40;76.00;;;;;;6309016;22;20004;-72
2023/03/01 08:25:23;;;;;;;4.65;1.95;;;12.40;75.60;;;;;;6308910;22;20456;-71
2023/03/01 08:27:49;;;;;;;4.35;1.58;;;12.60;75.80;;;;;;6309033;22;19999;-70
2023/03/01 08:30:15;;;;;;;6.32;1.75;;;12.60;75.30;;;;;;6308167;22;20084;-70
2023/03/01 08:32:41;;;;;;;4.00;2.00;;;12.80;75.20;;;;;;6308016;22;20007;-72
2023/03/01 08:35:07;;;;;;;4.88;1.75;;;12.90;75.10;;;;;;6308144;22;20398;-71
2023/03/01 08:37:33;;;;;;;8.70;1.50;;;13.00;75.00;;;;;;6307884;22;20012;-70
2023/03/01 08:40:00;;;;;;;7.38;1.58;;;13.10;74.30;;;;;;6308175;22;20026;-72
2023/03/01 08:42:26;;;;;;;4.90;1.65;;;13.10;74.00;;;;;;6308062;22;20448;-72
2023/03/01 08:44:52;;;;;;;6.25;2.10;;;13.10;73.30;;;;;;6308346;22;20028;-72
2023/03/01 08:47:17;;;;;;;8.13;2.03;;;13.00;73.90;;;;;;6308065;22;20074;-71
2023/03/01 08:49:43;;;;;;;6.35;1.77;;;13.00;74.30;;;;;;6307970;22;20066;-73
2023/03/01 08:52:09;;;;;;;6.60;1.75;;;13.00;74.20;;;;;;6308230;22;20458;-72
2023/03/01 08:54:34;;;;;;;5.50;2.05;;;13.00;73.80;;;;;;6308015;22;20432;-72
2023/03/01 08:57:03;;;;;;;7.32;1.88;;;13.10;73.90;;;;;;6307908;22;20056;-72
2023/03/01 08:59:29;;;;;;;9.23;1.70;;;13.10;73.60;;;;;;6281000;22;20035;-72
2023/03/01 09:01:55;;;;;;;9.05;1.52;;;13.10;73.40;;;;;;6307754;22;20015;-72
2023/03/01 09:04:21;;;;;;;4.30;1.80;;;13.00;73.50;;;;;;6308353;22;20037;-71
2023/03/01 09:06:48;;;;;;;11.40;2.33;;;13.00;73.60;;;;;;6307986;22;19999;-73
2023/03/01 09:09:16;;;;;;;5.15;1.20;;;13.10;73.50;;;;;;6307717;22;20007;-71
2023/03/01 09:11:43;;;;;;;3.70;1.27;;;13.10;73.20;;;;;;6307789;22;19999;-70
2023/03/01 09:14:09;;;;;;;6.70;2.35;;;13.10;73.00;;;;;;6280143;22;20018;-71
2023/03/01 09:16:37;;;;;;;7.10;3.10;;;13.10;72.70;;;;;;6280280;22;20090;-71
2023/03/01 09:19:04;;;;;;;10.07;2.38;;;13.20;72.90;;;;;;6307590;22;20018;-71
2023/03/01 09:21:30;;;;;;;3.05;1.30;;;13.20;72.70;;;;;;6308182;22;19995;-72
2023/03/01 09:23:57;;;;;;;4.43;1.50;;;13.10;72.70;;;;;;6280901;22;20046;-71
2023/03/01 09:26:23;;;;;;;4.57;1.60;;;13.10;73.40;;;;;;6308097;22;20023;-71
2023/03/01 09:28:51;;;;;;;5.80;1.40;;;13.20;72.90;;;;;;6280081;22;20004;-72
2023/03/01 09:31:20;;;;;;;9.43;2.40;;;13.20;73.00;;;;;;6307860;22;20010;-71
2023/03/01 09:33:48;;;;;;;3.25;1.27;;;13.30;72.90;;;;;;6307741;22;20003;-71
2023/03/01 09:36:17;;;;;;;3.90;1.25;;;13.30;72.70;;;;;;6307268;22;20007;-73
2023/03/01 09:38:43;;;;;;;2.78;1.10;;;13.30;72.80;;;;;;6307354;22;20011;-71
2023/03/01 09:41:20;;;;;;;11.45;1.50;;;13.40;72.80;;;;;;6307901;22;19999;-72
2023/03/01 09:43:54;;;;;;;5.47;1.20;;;13.30;72.60;;;;;;6307478;22;19999;-72
2023/03/01 09:46:22;;;;;;;5.00;1.55;;;13.30;72.70;;;;;;6307479;22;19999;-72
2023/03/01 09:49:03;;;;;;;3.00;1.20;;;13.20;72.80;;;;;;6280611;22;20007;-72
2023/03/01 09:51:36;;;;;;;4.53;1.20;;;13.30;73.00;;;;;;6308326;22;20498;-71
2023/03/01 09:54:04;;;;;;;3.25;1.15;;;13.40;73.10;;;;;;6308566;22;20000;-71
2023/03/01 09:57:05;;;;;;;8.02;2.42;;;13.50;72.60;;;;;;6323503;22;20007;-71
2023/03/01 09:59:43;;;;;;;4.10;1.15;;;13.70;72.30;;;;;;6207734;23;20081;-72
2023/03/01 10:02:43;;;;;;;5.05;1.20;;;13.90;72.30;;;;;;6301028;22;20399;-72
2023/03/01 10:05:37;;;;;;;2.85;1.38;;;14.20;72.00;;;;;;6308501;22;20007;-71
2023/03/01 10:08:29;;;;;;;2.97;0.93;;;14.40;70.90;;;;;;6307973;22;20306;-71
2023/03/01 10:10:54;;;;;;;4.43;0.90;;;14.50;70.00;;;;;;6308242;22;20003;-72
2023/03/01 10:13:44;;;;;;;2.97;0.77;;;14.50;68.90;;;;;;6279962;22;20038;-71
2023/03/01 10:16:16;;;;;;;2.38;0.60;;;14.30;68.50;;;;;;6307434;22;20023;-70
2023/03/01 10:18:46;;;;;;;2.25;1.00;;;14.20;68.10;;;;;;6307196;22;20464;-72
2023/03/01 10:21:20;;;;;;;2.53;0.82;;;14.20;68.30;;;;;;6307386;22;20329;-71
2023/03/01 10:23:49;;;;;;;3.90;1.00;;;14.20;68.50;;;;;;6307485;22;20011;-72
2023/03/01 10:26:26;;;;;;;3.67;1.60;;;14.30;68.10;;;;;;6307750;22;20447;-71
2023/03/01 10:29:08;;;;;;;3.67;1.10;;;14.30;68.80;;;;;;6307313;22;20004;-72
2023/03/01 10:31:46;;;;;;;3.25;1.02;;;14.50;68.50;;;;;;6307705;22;20037;-70
2023/03/01 10:34:15;;;;;;;5.53;1.52;;;14.60;68.40;;;;;;6307937;22;20084;-71
2023/03/01 10:36:43;;;;;;;2.83;0.93;;;14.60;68.20;;;;;;6279988;22;20313;-71
2023/03/01 10:39:19;;;;;;;2.78;0.98;;;14.70;67.90;;;;;;6306877;22;20011;-70
2023/03/01 10:42:19;;;;;;;2.80;1.05;;;14.70;67.70;;;;;;6307657;22;20004;-71
2023/03/01 10:44:47;;;;;;;7.57;1.50;;;14.60;67.70;;;;;;6301390;22;20338;-71
2023/03/01 10:47:15;;;;;;;1.60;1.00;;;14.50;67.70;;;;;;6307586;22;20003;-72
2023/03/01 10:50:02;;;;;;;3.15;1.20;;;14.50;67.70;;;;;;6306999;22;20011;-71
2023/03/01 10:52:40;;;;;;;5.28;1.23;;;14.50;67.80;;;;;;6306982;22;19998;-72
2023/03/01 10:55:27;;;;;;;4.70;1.40;;;14.40;67.80;;;;;;6306546;22;20360;-71
2023/03/01 10:58:17;;;;;;;3.60;1.55;;;14.50;68.20;;;;;;6306126;22;20007;-71
2023/03/01 11:00:53;;;;;;;6.93;1.65;;;14.40;68.70;;;;;;6287581;22;20037;-71
2023/03/01 11:03:30;;;;;;;4.85;1.40;;;14.30;68.90;;;;;;6306623;22;20019;-71
2023/03/01 11:06:21;;;;;;;4.18;1.60;;;14.50;69.50;;;;;;6305911;22;20003;-71
2023/03/01 11:08:49;;;;;;;7.38;2.00;;;14.50;69.10;;;;;;6306246;22;20309;-71
2023/03/01 11:11:18;;;;;;;3.83;1.27;;;14.50;68.80;;;;;;6278826;22;20371;-69
2023/03/01 11:13:54;;;;;;;8.15;1.85;;;14.50;68.70;;;;;;6306868;22;20381;-71
2023/03/01 11:16:27;;;;;;;11.10;1.83;;;14.60;69.20;;;;;;6306146;22;20061;-72
2023/03/01 11:19:11;;;;;;;3.45;1.60;;;14.70;68.40;;;;;;6305956;22;20065;-71
2023/03/01 11:21:38;;;;;;;;;;;14.70;68.50;;;;;;6279314;22;20003;-71
2023/03/01 11:24:09;;;;;;;16.95;2.17;;;14.80;67.50;;;;;;6306120;22;19899;-70
2023/03/01 11:26:40;;;;;;;10.68;1.90;;;15.00;67.50;;;;;;6306253;22;19995;-72
2023/03/01 11:29:31;;;;;;;2.95;1.50;;;15.20;66.90;;;;;;6306214;22;20003;-71
2023/03/01 11:32:01;;;;;;;3.72;1.38;;;15.30;66.80;;;;;;6305720;22;20007;-71
2023/03/01 11:35:04;;;;;;;4.75;1.40;;;15.30;66.30;;;;;;6306350;22;20003;-72
2023/03/01 11:37:41;;;;;;;10.95;1.80;;;15.10;66.90;;;;;;6258438;22;20045;-70
2023/03/01 11:40:27;;;;;;;3.35;1.30;;;14.90;66.80;;;;;;6306217;22;20082;-70
